createdAt,value
2022-10-22T00:02:21.340Z,14.20
2022-10-22T00:04:49.697Z,14.10
2022-10-22T00:07:18.404Z,14.20
2022-10-22T00:09:45.554Z,14.00
2022-10-22T00:12:13.806Z,14.10
2022-10-22T00:14:42.522Z,14.20
2022-10-22T00:17:11.628Z,14.20
2022-10-22T00:19:39.594Z,14.20
2022-10-22T00:22:06.777Z,14.10
2022-10-22T00:24:34.818Z,14.00
2022-10-22T00:27:02.316Z,13.90
2022-10-22T00:29:29.308Z,13.90
2022-10-22T00:34:28.158Z,13.90
2022-10-22T00:36:55.062Z,13.90
2022-10-22T00:39:23.844Z,14.00
2022-10-22T00:41:52.362Z,14.00
2022-10-22T00:44:58.224Z,14.00
2022-10-22T00:47:25.985Z,14.10
2022-10-22T00:49:54.404Z,14.30
2022-10-22T00:52:22.531Z,14.20
2022-10-22T00:54:50.027Z,14.30
2022-10-22T00:57:19.692Z,14.20
2022-10-22T00:59:47.725Z,14.30
2022-10-22T01:02:14.845Z,14.30
2022-10-22T01:04:49.504Z,14.20
2022-10-22T01:07:24.538Z,14.30
2022-10-22T01:10:06.046Z,14.20
2022-10-22T01:13:07.482Z,14.30
2022-10-22T01:15:58.388Z,14.50
2022-10-22T01:18:36.612Z,14.30
2022-10-22T01:21:09.222Z,14.40
2022-10-22T01:23:57.453Z,14.50
2022-10-22T01:26:28.673Z,14.30
2022-10-22T01:29:07.066Z,14.30
2022-10-22T01:31:39.690Z,14.40
2022-10-22T01:34:08.331Z,14.30
2022-10-22T01:36:37.381Z,14.20
2022-10-22T01:39:07.297Z,14.30
2022-10-22T01:41:34.733Z,14.50
2022-10-22T01:44:01.363Z,14.60
2022-10-22T01:46:28.874Z,14.50
2022-10-22T01:49:18.775Z,14.40
2022-10-22T01:51:53.989Z,14.40
2022-10-22T01:54:32.549Z,14.50
2022-10-22T01:57:19.449Z,14.40
2022-10-22T02:00:01.307Z,14.40
2022-10-22T02:02:36.715Z,14.50
2022-10-22T02:05:19.604Z,14.50
2022-10-22T02:07:50.850Z,14.50
2022-10-22T02:10:18.853Z,14.50
2022-10-22T02:12:50.435Z,14.40
2022-10-22T02:15:19.966Z,14.40
2022-10-22T02:17:47.734Z,14.20
2022-10-22T02:20:27.537Z,14.30
2022-10-22T02:22:55.351Z,14.30
2022-10-22T02:25:24.764Z,14.30
2022-10-22T02:28:13.727Z,14.30
2022-10-22T02:30:44.461Z,14.30
2022-10-22T02:33:24.243Z,14.40
2022-10-22T02:35:52.504Z,14.40
2022-10-22T02:38:20.070Z,14.40
2022-10-22T02:40:46.973Z,14.30
2022-10-22T02:43:14.052Z,14.20
2022-10-22T02:45:40.833Z,14.10
2022-10-22T02:48:31.468Z,14.30
2022-10-22T02:50:58.145Z,14.20
2022-10-22T02:53:24.808Z,14.20
2022-10-22T02:55:51.448Z,14.30
2022-10-22T02:58:18.121Z,14.20
2022-10-22T03:00:44.872Z,14.30
2022-10-22T03:03:11.551Z,14.10
2022-10-22T03:05:38.280Z,14.10
2022-10-22T03:08:05.093Z,14.00
2022-10-22T03:10:31.772Z,14.00
2022-10-22T03:12:58.561Z,14.00
2022-10-22T03:15:25.323Z,13.90
2022-10-22T03:17:51.999Z,14.10
2022-10-22T03:20:18.721Z,13.90
2022-10-22T03:22:46.011Z,14.00
2022-10-22T03:25:19.229Z,13.90
2022-10-22T03:27:47.155Z,14.00
2022-10-22T03:30:14.270Z,13.80
2022-10-22T03:32:41.006Z,14.10
2022-10-22T03:35:08.071Z,13.90
2022-10-22T03:37:36.044Z,13.90
2022-10-22T03:40:05.714Z,13.90
2022-10-22T03:42:32.576Z,13.90
2022-10-22T03:44:59.245Z,14.30
2022-10-22T03:47:25.982Z,14.10
2022-10-22T03:49:52.729Z,13.90
2022-10-22T03:52:19.644Z,14.10
2022-10-22T03:54:46.346Z,13.90
2022-10-22T03:57:13.058Z,14.00
2022-10-22T03:59:46.551Z,14.00
2022-10-22T04:02:14.344Z,13.90
2022-10-22T04:04:41.326Z,13.90
2022-10-22T04:07:08.229Z,13.90
2022-10-22T04:09:35.417Z,13.70
2022-10-22T04:12:02.305Z,13.70
2022-10-22T04:14:28.958Z,13.70
2022-10-22T04:16:55.809Z,13.70
2022-10-22T04:19:22.520Z,13.80
2022-10-22T04:21:49.419Z,13.80
2022-10-22T04:24:16.097Z,13.80
2022-10-22T04:26:54.440Z,13.90
2022-10-22T04:29:25.468Z,13.80
2022-10-22T04:31:52.611Z,13.80
2022-10-22T04:34:19.302Z,13.80
2022-10-22T04:36:45.991Z,13.70
2022-10-22T04:39:12.734Z,13.60
2022-10-22T04:41:39.715Z,13.70
2022-10-22T04:44:09.900Z,13.70
2022-10-22T04:46:40.276Z,13.80
2022-10-22T04:49:06.952Z,13.60
2022-10-22T04:51:33.627Z,13.80
2022-10-22T04:54:00.456Z,13.60
2022-10-22T04:56:30.115Z,13.80
2022-10-22T04:59:03.069Z,13.70
2022-10-22T05:01:32.348Z,13.60
2022-10-22T05:04:02.199Z,13.60
2022-10-22T05:06:30.802Z,13.60
2022-10-22T05:09:00.224Z,13.50
2022-10-22T05:11:33.914Z,13.60
2022-10-22T05:14:02.596Z,13.70
2022-10-22T05:16:30.051Z,13.70
2022-10-22T05:18:59.062Z,13.60
2022-10-22T05:21:26.776Z,13.70
2022-10-22T05:23:54.859Z,13.60
2022-10-22T05:26:22.505Z,13.60
2022-10-22T05:28:50.407Z,13.80
2022-10-22T05:31:18.172Z,13.50
2022-10-22T05:33:46.022Z,13.90
2022-10-22T05:36:18.313Z,13.80
2022-10-22T05:38:45.143Z,13.60
2022-10-22T05:41:17.912Z,13.70
2022-10-22T05:43:45.021Z,13.60
2022-10-22T05:46:22.582Z,13.60
2022-10-22T05:48:55.186Z,13.50
2022-10-22T05:51:22.824Z,13.50
2022-10-22T05:53:53.750Z,13.30
2022-10-22T05:56:21.194Z,13.40
2022-10-22T05:58:48.786Z,13.50
2022-10-22T06:01:20.569Z,13.50
2022-10-22T06:03:48.276Z,13.50
2022-10-22T06:06:34.063Z,13.40
2022-10-22T06:09:24.925Z,13.70
2022-10-22T06:11:52.158Z,13.50
2022-10-22T06:14:20.549Z,13.50
2022-10-22T06:16:47.714Z,13.40
2022-10-22T06:19:17.509Z,13.40
2022-10-22T06:21:44.793Z,13.50
2022-10-22T06:24:12.006Z,13.40
2022-10-22T06:26:41.073Z,13.50
2022-10-22T06:29:08.458Z,13.50
2022-10-22T06:31:38.443Z,13.50
2022-10-22T06:34:07.668Z,13.40
2022-10-22T06:36:35.034Z,13.50
2022-10-22T06:39:02.185Z,13.60
2022-10-22T06:41:29.771Z,13.70
2022-10-22T06:43:57.578Z,13.50
2022-10-22T06:46:26.176Z,13.50
2022-10-22T06:49:02.477Z,13.50
2022-10-22T06:51:31.372Z,13.60
2022-10-22T06:53:59.073Z,13.50
2022-10-22T06:56:27.727Z,13.70
2022-10-22T06:58:56.320Z,13.70
2022-10-22T07:01:33.546Z,13.60
2022-10-22T07:04:01.343Z,13.60
2022-10-22T07:06:29.298Z,13.60
2022-10-22T07:08:57.832Z,13.90
2022-10-22T07:11:28.719Z,13.90
2022-10-22T07:13:57.147Z,13.80
2022-10-22T07:16:28.059Z,13.70
2022-10-22T07:18:57.840Z,13.80
2022-10-22T07:21:26.085Z,13.60
2022-10-22T07:23:52.795Z,13.60
2022-10-22T07:26:22.333Z,13.60
2022-10-22T07:28:49.119Z,13.60
2022-10-22T07:31:17.443Z,13.80
2022-10-22T07:33:44.640Z,14.60
2022-10-22T07:36:17.548Z,14.90
2022-10-22T07:38:46.317Z,15.00
2022-10-22T07:41:14.022Z,14.60
2022-10-22T07:43:41.787Z,14.30
2022-10-22T07:46:09.064Z,14.40
2022-10-22T07:48:39.896Z,14.50
2022-10-22T07:51:07.135Z,14.70
2022-10-22T07:53:35.053Z,14.50
2022-10-22T07:56:01.881Z,14.60
2022-10-22T07:58:28.644Z,15.00
2022-10-22T08:00:57.239Z,14.90
2022-10-22T08:03:24.051Z,14.90
2022-10-22T08:05:51.929Z,15.00
2022-10-22T08:08:18.807Z,15.20
2022-10-22T08:10:48.157Z,15.00
2022-10-22T08:13:15.134Z,14.80
2022-10-22T08:18:15.305Z,15.20
2022-10-22T08:20:42.598Z,15.00
2022-10-22T08:23:09.818Z,15.20
2022-10-22T08:25:37.471Z,15.40
2022-10-22T08:28:04.343Z,15.10
2022-10-22T08:30:31.333Z,15.20
2022-10-22T08:32:57.966Z,15.20
2022-10-22T08:35:24.641Z,15.10
2022-10-22T08:37:51.331Z,15.20
2022-10-22T08:40:33.770Z,15.30
2022-10-22T08:43:13.257Z,15.50
2022-10-22T08:45:51.711Z,15.50
2022-10-22T08:48:18.374Z,15.30
2022-10-22T08:50:54.855Z,15.30
2022-10-22T08:53:42.660Z,15.70
2022-10-22T08:56:09.373Z,15.50
2022-10-22T08:58:51.326Z,15.60
2022-10-22T09:01:33.570Z,15.70
2022-10-22T09:04:11.150Z,15.90
2022-10-22T09:06:41.553Z,15.70
2022-10-22T09:09:12.704Z,15.70
2022-10-22T09:11:43.701Z,15.80
2022-10-22T09:14:17.444Z,16.00
2022-10-22T09:16:44.090Z,15.70
2022-10-22T09:19:22.955Z,16.00
2022-10-22T09:22:23.105Z,16.10
2022-10-22T09:25:02.866Z,16.30
2022-10-22T09:27:31.367Z,16.20
2022-10-22T09:29:58.216Z,16.00
2022-10-22T09:32:25.798Z,16.30
2022-10-22T09:34:56.688Z,16.20
2022-10-22T09:37:26.746Z,16.20
2022-10-22T09:39:55.031Z,16.10
2022-10-22T09:42:22.340Z,16.00
2022-10-22T09:44:55.025Z,16.00
2022-10-22T09:48:00.908Z,16.00
2022-10-22T09:50:49.714Z,16.20
2022-10-22T09:53:26.986Z,16.20
2022-10-22T09:55:57.296Z,16.40
2022-10-22T09:58:24.170Z,16.40
2022-10-22T10:01:00.313Z,16.30
2022-10-22T10:03:30.918Z,16.30
2022-10-22T10:06:02.983Z,16.50
2022-10-22T10:08:33.023Z,16.40
2022-10-22T10:11:10.194Z,16.60
2022-10-22T10:13:45.448Z,16.70
2022-10-22T10:16:29.475Z,16.50
2022-10-22T10:19:20.065Z,16.40
2022-10-22T10:22:05.038Z,16.60
2022-10-22T10:24:37.725Z,16.50
2022-10-22T10:27:25.676Z,16.60
2022-10-22T10:30:10.590Z,16.70
2022-10-22T10:33:03.676Z,16.50
2022-10-22T10:35:39.310Z,16.70
2022-10-22T10:38:16.728Z,16.80
2022-10-22T10:41:20.819Z,16.70
2022-10-22T10:44:02.482Z,16.70
2022-10-22T10:47:04.638Z,16.80
2022-10-22T10:49:34.689Z,16.80
2022-10-22T10:52:07.388Z,17.30
2022-10-22T10:54:43.779Z,16.80
2022-10-22T10:57:36.242Z,16.80
2022-10-22T11:00:21.900Z,17.00
2022-10-22T11:02:48.632Z,17.00
2022-10-22T11:05:41.477Z,16.90
2022-10-22T11:08:18.396Z,17.10
2022-10-22T11:10:50.209Z,17.10
2022-10-22T11:13:26.851Z,17.00
2022-10-22T11:16:04.802Z,16.80
2022-10-22T11:19:15.533Z,16.80
2022-10-22T11:22:05.147Z,16.90
2022-10-22T11:25:03.582Z,16.80
2022-10-22T11:28:00.928Z,17.00
2022-10-22T11:30:37.934Z,16.90
2022-10-22T11:33:28.766Z,17.20
2022-10-22T11:35:57.833Z,17.20
2022-10-22T11:38:26.162Z,17.20
2022-10-22T11:41:04.630Z,17.40
2022-10-22T11:43:35.656Z,17.20
2022-10-22T11:46:40.610Z,17.40
2022-10-22T11:49:13.266Z,17.70
2022-10-22T11:51:41.852Z,17.50
2022-10-22T11:54:42.899Z,17.60
2022-10-22T11:57:15.379Z,17.60
2022-10-22T11:59:55.952Z,17.60
2022-10-22T12:02:28.663Z,17.50
2022-10-22T12:05:16.643Z,17.30
2022-10-22T12:07:54.870Z,17.30
2022-10-22T12:10:26.883Z,17.20
2022-10-22T12:13:01.341Z,17.10
2022-10-22T12:15:28.651Z,17.10
2022-10-22T12:18:05.402Z,17.10
2022-10-22T12:20:32.278Z,17.10
2022-10-22T12:23:00.048Z,17.20
2022-10-22T12:25:35.641Z,17.30
2022-10-22T12:28:02.914Z,17.50
2022-10-22T12:30:34.958Z,17.60
2022-10-22T12:33:05.007Z,17.40
2022-10-22T12:35:57.441Z,17.50
2022-10-22T12:38:25.702Z,17.60
2022-10-22T12:40:56.529Z,17.60
2022-10-22T12:43:28.950Z,17.60
2022-10-22T12:45:57.709Z,17.60
2022-10-22T12:48:28.096Z,17.70
2022-10-22T12:50:55.807Z,17.70
2022-10-22T12:53:30.645Z,17.60
2022-10-22T12:56:01.900Z,17.80
2022-10-22T12:58:41.643Z,17.60
2022-10-22T13:01:12.231Z,17.60
2022-10-22T13:04:03.969Z,17.60
2022-10-22T13:06:34.926Z,17.70
2022-10-22T13:09:01.592Z,17.90
2022-10-22T13:11:41.844Z,17.70
2022-10-22T13:14:23.021Z,17.90
2022-10-22T13:17:10.818Z,17.90
2022-10-22T13:19:45.390Z,17.80
2022-10-22T13:22:26.245Z,17.80
2022-10-22T13:24:53.555Z,17.80
2022-10-22T13:27:20.404Z,17.90
2022-10-22T13:29:47.061Z,18.00
2022-10-22T13:32:27.094Z,17.90
2022-10-22T13:34:53.993Z,17.90
2022-10-22T13:37:20.748Z,17.80
2022-10-22T13:39:47.487Z,17.80
2022-10-22T13:42:14.243Z,17.90
2022-10-22T13:44:40.904Z,17.70
2022-10-22T13:47:19.816Z,17.80
2022-10-22T13:49:46.833Z,17.80
2022-10-22T13:52:22.477Z,17.70
2022-10-22T13:54:49.170Z,17.80
2022-10-22T13:57:15.837Z,17.80
2022-10-22T13:59:42.540Z,17.90
2022-10-22T14:02:12.266Z,17.70
2022-10-22T14:04:41.595Z,17.70
2022-10-22T14:07:14.734Z,17.70
2022-10-22T14:09:41.696Z,17.70
2022-10-22T14:12:13.303Z,17.60
2022-10-22T14:14:40.127Z,17.60
2022-10-22T14:17:12.577Z,17.60
2022-10-22T14:19:39.696Z,17.60
2022-10-22T14:22:08.141Z,17.60
2022-10-22T14:24:34.769Z,17.60
2022-10-22T14:27:01.443Z,17.60
2022-10-22T14:29:28.134Z,17.50
2022-10-22T14:31:54.858Z,17.50
2022-10-22T14:34:21.511Z,17.50
2022-10-22T14:36:48.166Z,17.60
2022-10-22T14:39:14.827Z,17.50
2022-10-22T14:41:42.490Z,17.50
2022-10-22T14:44:12.726Z,17.50
2022-10-22T14:46:42.171Z,17.50
2022-10-22T14:49:08.832Z,17.40
2022-10-22T14:51:35.461Z,17.40
2022-10-22T14:54:02.148Z,17.30
2022-10-22T14:56:28.899Z,17.40
2022-10-22T14:58:55.612Z,17.50
2022-10-22T15:01:22.291Z,17.50
2022-10-22T15:03:48.992Z,17.50
2022-10-22T15:06:15.680Z,17.50
2022-10-22T15:08:42.366Z,17.40
2022-10-22T15:11:12.137Z,17.40
2022-10-22T15:13:41.307Z,17.50
2022-10-22T15:16:10.348Z,17.40
2022-10-22T15:18:39.804Z,17.40
2022-10-22T15:21:13.236Z,17.40
2022-10-22T15:23:40.663Z,17.50
2022-10-22T15:26:08.459Z,17.50
2022-10-22T15:28:37.146Z,17.40
2022-10-22T15:31:04.192Z,17.50
2022-10-22T15:33:31.084Z,17.30
2022-10-22T15:35:58.184Z,17.10
2022-10-22T15:41:05.782Z,17.20
2022-10-22T15:43:33.442Z,17.30
2022-10-22T15:46:15.064Z,17.30
2022-10-22T15:48:42.200Z,17.30
2022-10-22T15:51:14.559Z,17.30
2022-10-22T15:53:42.125Z,17.10
2022-10-22T15:56:09.958Z,17.10
2022-10-22T15:58:36.667Z,17.10
2022-10-22T16:01:09.077Z,17.00
2022-10-22T16:03:36.256Z,17.20
2022-10-22T16:06:03.740Z,17.10
2022-10-22T16:08:30.794Z,17.00
2022-10-22T16:10:58.512Z,16.90
2022-10-22T16:13:26.635Z,16.80
2022-10-22T16:15:53.815Z,16.80
2022-10-22T16:18:21.543Z,16.90
2022-10-22T16:20:48.205Z,16.80
2022-10-22T16:23:18.648Z,16.80
2022-10-22T16:25:46.192Z,16.70
2022-10-22T16:28:13.209Z,16.70
2022-10-22T16:30:40.249Z,16.60
2022-10-22T16:33:07.843Z,16.50
2022-10-22T16:35:34.527Z,16.50
2022-10-22T16:38:01.256Z,16.40
2022-10-22T16:40:29.169Z,16.40
2022-10-22T16:42:55.810Z,16.20
2022-10-22T16:45:23.488Z,16.00
2022-10-22T16:47:50.275Z,15.80
2022-10-22T16:50:16.992Z,15.90
2022-10-22T16:52:43.723Z,15.70
2022-10-22T16:55:10.399Z,15.70
2022-10-22T16:57:37.112Z,15.60
2022-10-22T17:00:05.758Z,15.60
2022-10-22T17:02:32.472Z,15.70
2022-10-22T17:04:59.183Z,15.70
2022-10-22T17:07:25.910Z,15.60
2022-10-22T17:09:52.549Z,15.60
2022-10-22T17:12:19.264Z,15.70
2022-10-22T17:14:45.922Z,15.60
2022-10-22T17:17:12.570Z,15.40
2022-10-22T17:19:39.632Z,15.30
2022-10-22T17:22:06.351Z,15.20
2022-10-22T17:24:32.992Z,15.30
2022-10-22T17:26:59.683Z,15.20
2022-10-22T17:29:26.495Z,15.30
2022-10-22T17:31:53.155Z,15.20
2022-10-22T17:34:19.846Z,15.20
2022-10-22T17:36:46.663Z,15.00
2022-10-22T17:39:17.740Z,15.00
2022-10-22T17:41:45.847Z,14.90
2022-10-22T17:44:13.573Z,14.80
2022-10-22T17:46:40.572Z,14.80
2022-10-22T17:49:16.122Z,14.70
2022-10-22T17:51:42.909Z,14.70
2022-10-22T17:54:10.213Z,14.70
2022-10-22T17:56:38.833Z,15.00
2022-10-22T17:59:06.019Z,15.10
2022-10-22T18:01:35.824Z,15.00
2022-10-22T18:04:05.724Z,15.10
2022-10-22T18:06:33.712Z,15.10
2022-10-22T18:09:05.759Z,15.20
2022-10-22T18:11:32.889Z,15.10
2022-10-22T18:13:59.747Z,15.00
2022-10-22T18:16:26.941Z,15.00
2022-10-22T18:18:55.488Z,15.00
2022-10-22T18:21:24.563Z,15.10
2022-10-22T18:23:52.549Z,14.90
2022-10-22T18:26:22.781Z,15.00
2022-10-22T18:28:52.613Z,15.00
2022-10-22T18:31:24.783Z,14.90
2022-10-22T18:33:51.599Z,14.70
2022-10-22T18:36:21.407Z,14.90
2022-10-22T18:38:59.208Z,15.00
2022-10-22T18:41:27.138Z,14.90
2022-10-22T18:43:55.861Z,14.80
2022-10-22T18:46:24.066Z,15.00
2022-10-22T18:48:55.303Z,15.10
2022-10-22T18:51:23.960Z,15.00
2022-10-22T18:54:04.675Z,14.90
2022-10-22T18:56:39.590Z,14.90
2022-10-22T18:59:06.253Z,14.80
2022-10-22T19:01:35.448Z,14.80
2022-10-22T19:04:02.262Z,14.70
2022-10-22T19:06:34.497Z,14.80
2022-10-22T19:09:04.642Z,14.80
2022-10-22T19:11:32.163Z,14.70
2022-10-22T19:13:58.830Z,14.70
2022-10-22T19:16:26.810Z,14.70
2022-10-22T19:19:03.937Z,14.80
2022-10-22T19:21:30.881Z,14.70
2022-10-22T19:23:59.474Z,14.50
2022-10-22T19:26:27.649Z,14.60
2022-10-22T19:28:54.976Z,14.70
2022-10-22T19:31:23.552Z,14.70
2022-10-22T19:33:51.892Z,14.80
2022-10-22T19:36:19.216Z,15.00
2022-10-22T19:38:48.200Z,15.10
2022-10-22T19:41:18.171Z,15.20
2022-10-22T19:43:47.843Z,15.20
2022-10-22T19:46:14.554Z,15.30
2022-10-22T19:48:41.466Z,15.30
2022-10-22T19:51:10.967Z,15.20
2022-10-22T19:53:38.854Z,15.20
2022-10-22T19:56:07.718Z,15.00
2022-10-22T19:58:35.047Z,15.10
2022-10-22T20:01:09.576Z,15.20
2022-10-22T20:03:37.476Z,15.10
2022-10-22T20:06:06.066Z,15.10
2022-10-22T20:08:37.940Z,15.20
2022-10-22T20:11:09.018Z,15.10
2022-10-22T20:13:36.417Z,15.00
2022-10-22T20:16:03.942Z,15.00
2022-10-22T20:18:34.041Z,15.10
2022-10-22T20:21:08.217Z,15.10
2022-10-22T20:23:35.348Z,15.00
2022-10-22T20:26:02.007Z,15.00
2022-10-22T20:28:28.704Z,14.90
2022-10-22T20:30:55.377Z,15.00
2022-10-22T20:33:22.141Z,15.10
2022-10-22T20:36:02.977Z,15.00
2022-10-22T20:38:29.710Z,14.90
2022-10-22T20:41:18.372Z,14.80
2022-10-22T20:43:46.359Z,14.90
2022-10-22T20:46:22.398Z,14.90
2022-10-22T20:48:54.580Z,14.90
2022-10-22T20:51:21.832Z,14.80
2022-10-22T20:53:48.640Z,14.70
2022-10-22T20:56:16.542Z,14.80
2022-10-22T20:58:48.648Z,15.00
2022-10-22T21:01:21.625Z,14.80
2022-10-22T21:03:52.666Z,14.80
2022-10-22T21:06:23.699Z,14.70
2022-10-22T21:08:51.508Z,14.70
2022-10-22T21:11:19.639Z,14.80
2022-10-22T21:13:46.737Z,14.70
2022-10-22T21:16:14.848Z,14.60
2022-10-22T21:18:41.512Z,14.60
2022-10-22T21:21:09.093Z,14.80
2022-10-22T21:23:36.534Z,14.70
2022-10-22T21:26:03.879Z,14.70
2022-10-22T21:28:34.970Z,14.90
2022-10-22T21:31:06.963Z,14.80
2022-10-22T21:33:41.167Z,14.90
2022-10-22T21:36:09.145Z,14.90
2022-10-22T21:38:37.472Z,14.90
2022-10-22T21:41:06.297Z,14.80
2022-10-22T21:43:33.161Z,14.80
2022-10-22T21:46:09.689Z,14.90
2022-10-22T21:48:37.344Z,14.90
2022-10-22T21:51:23.402Z,14.90
2022-10-22T21:53:53.317Z,15.00
2022-10-22T21:56:22.769Z,14.90
2022-10-22T21:58:56.851Z,14.80
2022-10-22T22:01:23.929Z,14.90
2022-10-22T22:03:52.414Z,14.80
2022-10-22T22:06:21.983Z,14.80
2022-10-22T22:08:50.127Z,14.80
2022-10-22T22:11:20.775Z,14.80
2022-10-22T22:13:48.751Z,14.80
2022-10-22T22:16:21.269Z,14.80
2022-10-22T22:18:50.722Z,14.70
2022-10-22T22:21:20.259Z,14.60
2022-10-22T22:23:48.648Z,14.50
2022-10-22T22:26:17.602Z,14.70
2022-10-22T22:28:44.354Z,14.80
2022-10-22T22:31:28.679Z,14.70
2022-10-22T22:34:03.366Z,14.80
2022-10-22T22:36:35.333Z,14.80
2022-10-22T22:39:03.004Z,14.60
2022-10-22T22:41:29.756Z,14.80
2022-10-22T22:43:56.406Z,14.70
2022-10-22T22:46:23.064Z,14.80
2022-10-22T22:48:49.811Z,14.70
2022-10-22T22:51:17.453Z,14.60
2022-10-22T22:53:44.146Z,14.60
2022-10-22T22:56:13.855Z,14.60
2022-10-22T22:58:41.467Z,14.50
2022-10-22T23:01:19.821Z,14.70
2022-10-22T23:03:48.913Z,14.70
2022-10-22T23:06:16.109Z,14.70
2022-10-22T23:08:43.094Z,14.70
2022-10-22T23:11:12.840Z,14.70
2022-10-22T23:13:41.253Z,14.50
2022-10-22T23:16:14.197Z,14.50
2022-10-22T23:18:42.840Z,14.60
2022-10-22T23:21:15.888Z,14.60
2022-10-22T23:23:44.820Z,14.70
2022-10-22T23:26:13.581Z,14.70
2022-10-22T23:28:40.614Z,14.60
2022-10-22T23:31:07.800Z,14.60
2022-10-22T23:33:35.224Z,14.70
2022-10-22T23:36:02.155Z,14.60
2022-10-22T23:38:28.888Z,14.70
2022-10-22T23:40:56.950Z,14.70
2022-10-22T23:43:27.689Z,14.60
2022-10-22T23:45:54.532Z,14.50
2022-10-22T23:48:21.920Z,14.30
2022-10-22T23:50:49.201Z,14.20
2022-10-22T23:53:16.191Z,14.20
2022-10-22T23:55:44.702Z,14.20
2022-10-22T23:58:11.995Z,14.40
